sim
Sign-in with your pilot id or email,
or register
Callsign
Passwort

Schedule Details

Flight Number: DLH2263 (2)
Departure: Marseille Provence Airport (LFML) at 12:25
Arrival: Munich Airport (EDDM) at 14:00
Route: Lufthansa Passenger Schedule. Enter filed route here before submitting Pirep.

Weather Information
Getting current METAR information for LFML 190430Z AUTO 14008KT CAVOK 23/15 Q1016 TEMPO SCT090TCU
Getting current METAR information for EDDM 190450Z 32001KT CAVOK 04/03 Q1020 NOSIG

Schedule Frequency

Route Map